Quamba, Minnesota
Current Conditions -  °F | °C
As of 11:55 PM on Thursday 30 Oct 2014 (Local Time) from KJMR Reporting Station
Clear Clear  
Wind Chill: 22°   Ceiling: Unl
Heat Index: 30°   Visibility: 10mi
Dew Point: 18°   Wind: 9mph
Humidity: 60%   Direction: 340°NNW
Pressure: 30.39"   Gusts: 17mph
Location:  45.9652°N, 93.2874°W
Report Text: KJMR 310455Z AUTO 34008G15KT 10SM CLR M01/M08 A3039 RMK AO2
Loading
Personal Weather Stations






























Interactive Weather Map
Tropical Storm Tracking
New forecast layout! Learn more

10-Day Weather Forecast

Advertisements
Track Severe Weather on mobile